sensor_id;sensor_type;location;lat;lon;timestamp;P1;durP1;ratioP1;P2;durP2;ratioP2
59300;SDS011;45073;52.740;6.784;2022-08-20T00:00:53;15.13;;;11.45;;
59300;SDS011;45073;52.740;6.784;2022-08-20T00:03:21;15.63;;;12.15;;
59300;SDS011;45073;52.740;6.784;2022-08-20T00:06:12;17.40;;;14.40;;
59300;SDS011;45073;52.740;6.784;2022-08-20T00:08:42;13.90;;;12.25;;
59300;SDS011;45073;52.740;6.784;2022-08-20T00:11:09;14.73;;;12.35;;
59300;SDS011;45073;52.740;6.784;2022-08-20T00:13:40;14.25;;;12.73;;
59300;SDS011;45073;52.740;6.784;2022-08-20T00:16:15;13.52;;;12.10;;
59300;SDS011;45073;52.740;6.784;2022-08-20T00:18:43;13.15;;;11.75;;
59300;SDS011;45073;52.740;6.784;2022-08-20T00:21:10;15.57;;;12.15;;
59300;SDS011;45073;52.740;6.784;2022-08-20T00:23:38;15.45;;;13.63;;
59300;SDS011;45073;52.740;6.784;2022-08-20T00:26:06;14.30;;;12.80;;
59300;SDS011;45073;52.740;6.784;2022-08-20T00:28:32;14.07;;;12.32;;
59300;SDS011;45073;52.740;6.784;2022-08-20T00:30:58;15.25;;;13.60;;
59300;SDS011;45073;52.740;6.784;2022-08-20T00:33:24;15.15;;;12.30;;
59300;SDS011;45073;52.740;6.784;2022-08-20T00:35:51;15.90;;;12.60;;
59300;SDS011;45073;52.740;6.784;2022-08-20T00:38:18;14.48;;;12.98;;
59300;SDS011;45073;52.740;6.784;2022-08-20T00:40:47;15.65;;;13.15;;
59300;SDS011;45073;52.740;6.784;2022-08-20T00:43:26;14.75;;;13.18;;
59300;SDS011;45073;52.740;6.784;2022-08-20T00:45:52;14.85;;;13.10;;
59300;SDS011;45073;52.740;6.784;2022-08-20T00:48:25;15.15;;;12.43;;
59300;SDS011;45073;52.740;6.784;2022-08-20T00:50:56;13.85;;;12.35;;
59300;SDS011;45073;52.740;6.784;2022-08-20T00:53:26;16.45;;;14.02;;
59300;SDS011;45073;52.740;6.784;2022-08-20T00:55:53;15.57;;;13.05;;
59300;SDS011;45073;52.740;6.784;2022-08-20T00:58:19;13.35;;;11.98;;
59300;SDS011;45073;52.740;6.784;2022-08-20T01:00:46;15.25;;;13.65;;
59300;SDS011;45073;52.740;6.784;2022-08-20T01:03:14;13.38;;;11.73;;
59300;SDS011;45073;52.740;6.784;2022-08-20T01:05:42;14.15;;;12.35;;
59300;SDS011;45073;52.740;6.784;2022-08-20T01:08:11;15.00;;;12.10;;
59300;SDS011;45073;52.740;6.784;2022-08-20T01:10:38;13.30;;;11.90;;
59300;SDS011;45073;52.740;6.784;2022-08-20T01:13:09;16.25;;;12.40;;
59300;SDS011;45073;52.740;6.784;2022-08-20T01:15:39;15.02;;;12.82;;
59300;SDS011;45073;52.740;6.784;2022-08-20T01:18:09;15.70;;;12.40;;
59300;SDS011;45073;52.740;6.784;2022-08-20T01:26:13;14.68;;;12.60;;
59300;SDS011;45073;52.740;6.784;2022-08-20T01:31:21;13.68;;;12.25;;
59300;SDS011;45073;52.740;6.784;2022-08-20T01:33:48;14.95;;;12.80;;
59300;SDS011;45073;52.740;6.784;2022-08-20T01:36:15;13.57;;;11.98;;
59300;SDS011;45073;52.740;6.784;2022-08-20T01:38:44;14.60;;;11.55;;
59300;SDS011;45073;52.740;6.784;2022-08-20T01:43:41;14.10;;;11.88;;
59300;SDS011;45073;52.740;6.784;2022-08-20T01:46:09;12.77;;;10.93;;
59300;SDS011;45073;52.740;6.784;2022-08-20T01:48:36;14.50;;;11.48;;
59300;SDS011;45073;52.740;6.784;2022-08-20T01:51:07;13.98;;;11.27;;
59300;SDS011;45073;52.740;6.784;2022-08-20T01:53:39;14.75;;;11.75;;
59300;SDS011;45073;52.740;6.784;2022-08-20T01:56:07;16.15;;;12.00;;
59300;SDS011;45073;52.740;6.784;2022-08-20T01:58:41;13.30;;;10.63;;
59300;SDS011;45073;52.740;6.784;2022-08-20T02:03:47;12.27;;;10.50;;
59300;SDS011;45073;52.740;6.784;2022-08-20T02:06:13;13.48;;;10.13;;
59300;SDS011;45073;52.740;6.784;2022-08-20T02:08:40;14.40;;;10.52;;
59300;SDS011;45073;52.740;6.784;2022-08-20T02:11:06;17.98;;;10.45;;
59300;SDS011;45073;52.740;6.784;2022-08-20T02:13:33;14.75;;;10.13;;
59300;SDS011;45073;52.740;6.784;2022-08-20T02:15:58;13.63;;;9.60;;
59300;SDS011;45073;52.740;6.784;2022-08-20T02:18:24;12.25;;;8.98;;
59300;SDS011;45073;52.740;6.784;2022-08-20T02:20:50;14.35;;;10.05;;
59300;SDS011;45073;52.740;6.784;2022-08-20T02:23:16;12.95;;;9.18;;
59300;SDS011;45073;52.740;6.784;2022-08-20T02:25:43;12.02;;;9.02;;
59300;SDS011;45073;52.740;6.784;2022-08-20T02:28:16;12.60;;;9.80;;
59300;SDS011;45073;52.740;6.784;2022-08-20T02:33:12;15.13;;;9.90;;
59300;SDS011;45073;52.740;6.784;2022-08-20T02:35:40;13.60;;;10.48;;
59300;SDS011;45073;52.740;6.784;2022-08-20T02:38:07;15.05;;;10.43;;
59300;SDS011;45073;52.740;6.784;2022-08-20T02:40:34;14.68;;;9.85;;
59300;SDS011;45073;52.740;6.784;2022-08-20T02:43:00;14.40;;;10.10;;
59300;SDS011;45073;52.740;6.784;2022-08-20T02:45:27;15.75;;;9.73;;
59300;SDS011;45073;52.740;6.784;2022-08-20T02:47:53;15.65;;;9.75;;
59300;SDS011;45073;52.740;6.784;2022-08-20T02:50:21;14.25;;;10.07;;
59300;SDS011;45073;52.740;6.784;2022-08-20T02:52:48;15.18;;;10.35;;
59300;SDS011;45073;52.740;6.784;2022-08-20T02:55:13;14.20;;;9.85;;
59300;SDS011;45073;52.740;6.784;2022-08-20T02:57:40;12.85;;;9.20;;
59300;SDS011;45073;52.740;6.784;2022-08-20T03:00:16;13.20;;;10.35;;
59300;SDS011;45073;52.740;6.784;2022-08-20T03:02:43;15.13;;;10.68;;
59300;SDS011;45073;52.740;6.784;2022-08-20T03:05:09;15.23;;;9.48;;
59300;SDS011;45073;52.740;6.784;2022-08-20T03:07:39;13.60;;;9.73;;
59300;SDS011;45073;52.740;6.784;2022-08-20T03:10:07;16.50;;;11.10;;
59300;SDS011;45073;52.740;6.784;2022-08-20T03:12:33;15.93;;;10.82;;
59300;SDS011;45073;52.740;6.784;2022-08-20T03:14:58;14.82;;;11.63;;
59300;SDS011;45073;52.740;6.784;2022-08-20T03:17:24;16.50;;;11.13;;
59300;SDS011;45073;52.740;6.784;2022-08-20T03:19:49;15.27;;;10.55;;
59300;SDS011;45073;52.740;6.784;2022-08-20T03:22:15;15.73;;;11.93;;
59300;SDS011;45073;52.740;6.784;2022-08-20T03:24:40;13.43;;;10.30;;
59300;SDS011;45073;52.740;6.784;2022-08-20T03:27:06;15.70;;;10.60;;
59300;SDS011;45073;52.740;6.784;2022-08-20T03:29:32;13.70;;;10.23;;
59300;SDS011;45073;52.740;6.784;2022-08-20T03:31:57;13.50;;;10.15;;
59300;SDS011;45073;52.740;6.784;2022-08-20T03:34:23;14.75;;;9.68;;
59300;SDS011;45073;52.740;6.784;2022-08-20T03:36:49;12.35;;;9.00;;
59300;SDS011;45073;52.740;6.784;2022-08-20T03:39:14;14.48;;;8.95;;
59300;SDS011;45073;52.740;6.784;2022-08-20T03:41:40;15.77;;;9.40;;
59300;SDS011;45073;52.740;6.784;2022-08-20T03:44:06;12.65;;;9.38;;
59300;SDS011;45073;52.740;6.784;2022-08-20T03:46:32;17.13;;;8.82;;
59300;SDS011;45073;52.740;6.784;2022-08-20T03:48:58;13.32;;;9.25;;
59300;SDS011;45073;52.740;6.784;2022-08-20T03:51:23;14.85;;;10.25;;
59300;SDS011;45073;52.740;6.784;2022-08-20T03:53:49;13.63;;;9.45;;
59300;SDS011;45073;52.740;6.784;2022-08-20T03:56:15;11.10;;;8.90;;
59300;SDS011;45073;52.740;6.784;2022-08-20T03:58:41;11.18;;;8.20;;
59300;SDS011;45073;52.740;6.784;2022-08-20T04:01:07;11.77;;;8.10;;
59300;SDS011;45073;52.740;6.784;2022-08-20T04:03:33;14.57;;;8.50;;
59300;SDS011;45073;52.740;6.784;2022-08-20T04:05:59;13.07;;;9.40;;
59300;SDS011;45073;52.740;6.784;2022-08-20T04:08:25;14.02;;;9.65;;
59300;SDS011;45073;52.740;6.784;2022-08-20T04:10:53;10.60;;;7.38;;
59300;SDS011;45073;52.740;6.784;2022-08-20T04:13:22;10.50;;;6.20;;
59300;SDS011;45073;52.740;6.784;2022-08-20T04:15:48;12.52;;;8.95;;
59300;SDS011;45073;52.740;6.784;2022-08-20T04:18:19;13.38;;;9.40;;
59300;SDS011;45073;52.740;6.784;2022-08-20T04:20:48;13.80;;;10.07;;
59300;SDS011;45073;52.740;6.784;2022-08-20T04:23:14;14.68;;;9.68;;
59300;SDS011;45073;52.740;6.784;2022-08-20T04:25:40;11.80;;;8.95;;
59300;SDS011;45073;52.740;6.784;2022-08-20T04:28:09;15.25;;;8.90;;
59300;SDS011;45073;52.740;6.784;2022-08-20T04:30:37;15.98;;;10.40;;
59300;SDS011;45073;52.740;6.784;2022-08-20T04:33:03;15.07;;;9.70;;
59300;SDS011;45073;52.740;6.784;2022-08-20T04:35:29;10.15;;;8.30;;
59300;SDS011;45073;52.740;6.784;2022-08-20T04:40:31;14.77;;;9.98;;
59300;SDS011;45073;52.740;6.784;2022-08-20T04:43:15;14.52;;;9.43;;
59300;SDS011;45073;52.740;6.784;2022-08-20T04:45:41;13.32;;;9.02;;
59300;SDS011;45073;52.740;6.784;2022-08-20T04:48:07;11.63;;;8.90;;
59300;SDS011;45073;52.740;6.784;2022-08-20T04:50:34;13.40;;;9.35;;
59300;SDS011;45073;52.740;6.784;2022-08-20T04:53:02;14.15;;;8.98;;
59300;SDS011;45073;52.740;6.784;2022-08-20T04:55:29;15.18;;;9.80;;
59300;SDS011;45073;52.740;6.784;2022-08-20T04:58:01;15.75;;;9.57;;
59300;SDS011;45073;52.740;6.784;2022-08-20T05:00:28;13.95;;;9.45;;
59300;SDS011;45073;52.740;6.784;2022-08-20T05:02:55;15.02;;;9.02;;
59300;SDS011;45073;52.740;6.784;2022-08-20T05:05:21;14.00;;;9.65;;
59300;SDS011;45073;52.740;6.784;2022-08-20T05:07:47;13.65;;;8.98;;
59300;SDS011;45073;52.740;6.784;2022-08-20T05:10:13;13.63;;;8.88;;
59300;SDS011;45073;52.740;6.784;2022-08-20T05:12:40;13.45;;;8.68;;
59300;SDS011;45073;52.740;6.784;2022-08-20T05:15:07;14.68;;;8.27;;
59300;SDS011;45073;52.740;6.784;2022-08-20T05:17:40;12.77;;;8.75;;
59300;SDS011;45073;52.740;6.784;2022-08-20T05:20:08;14.50;;;8.75;;
59300;SDS011;45073;52.740;6.784;2022-08-20T05:22:35;14.20;;;9.35;;
59300;SDS011;45073;52.740;6.784;2022-08-20T05:25:01;13.25;;;9.00;;
59300;SDS011;45073;52.740;6.784;2022-08-20T05:27:28;13.23;;;9.57;;
59300;SDS011;45073;52.740;6.784;2022-08-20T05:30:02;12.05;;;8.55;;
59300;SDS011;45073;52.740;6.784;2022-08-20T05:32:34;15.75;;;9.38;;
59300;SDS011;45073;52.740;6.784;2022-08-20T05:35:03;13.60;;;8.75;;
59300;SDS011;45073;52.740;6.784;2022-08-20T05:37:33;11.80;;;4.88;;
59300;SDS011;45073;52.740;6.784;2022-08-20T05:40:06;11.95;;;7.32;;
59300;SDS011;45073;52.740;6.784;2022-08-20T05:42:34;13.32;;;8.35;;
59300;SDS011;45073;52.740;6.784;2022-08-20T05:44:59;13.50;;;7.63;;
59300;SDS011;45073;52.740;6.784;2022-08-20T05:47:25;14.00;;;8.10;;
59300;SDS011;45073;52.740;6.784;2022-08-20T05:49:52;13.45;;;8.13;;
59300;SDS011;45073;52.740;6.784;2022-08-20T05:52:18;14.02;;;8.77;;
59300;SDS011;45073;52.740;6.784;2022-08-20T05:54:43;12.65;;;8.38;;
59300;SDS011;45073;52.740;6.784;2022-08-20T05:57:09;16.85;;;8.48;;
59300;SDS011;45073;52.740;6.784;2022-08-20T05:59:34;12.40;;;8.20;;
59300;SDS011;45073;52.740;6.784;2022-08-20T06:02:00;14.65;;;10.10;;
59300;SDS011;45073;52.740;6.784;2022-08-20T06:04:46;13.38;;;8.80;;
59300;SDS011;45073;52.740;6.784;2022-08-20T06:07:12;13.63;;;8.48;;
59300;SDS011;45073;52.740;6.784;2022-08-20T06:09:39;15.65;;;8.00;;
59300;SDS011;45073;52.740;6.784;2022-08-20T06:12:05;15.18;;;9.05;;
59300;SDS011;45073;52.740;6.784;2022-08-20T06:14:33;12.63;;;7.97;;
59300;SDS011;45073;52.740;6.784;2022-08-20T06:17:07;12.25;;;7.65;;
59300;SDS011;45073;52.740;6.784;2022-08-20T06:19:40;13.93;;;8.00;;
59300;SDS011;45073;52.740;6.784;2022-08-20T06:22:07;16.33;;;8.80;;
59300;SDS011;45073;52.740;6.784;2022-08-20T06:24:33;14.75;;;8.25;;
59300;SDS011;45073;52.740;6.784;2022-08-20T06:26:59;14.57;;;8.20;;
59300;SDS011;45073;52.740;6.784;2022-08-20T06:29:28;14.07;;;8.38;;
59300;SDS011;45073;52.740;6.784;2022-08-20T06:31:54;14.55;;;8.10;;
59300;SDS011;45073;52.740;6.784;2022-08-20T06:34:20;13.20;;;7.53;;
59300;SDS011;45073;52.740;6.784;2022-08-20T06:36:46;14.75;;;8.45;;
59300;SDS011;45073;52.740;6.784;2022-08-20T06:39:12;11.88;;;6.80;;
59300;SDS011;45073;52.740;6.784;2022-08-20T06:41:39;14.40;;;6.95;;
59300;SDS011;45073;52.740;6.784;2022-08-20T06:44:05;18.52;;;6.35;;
59300;SDS011;45073;52.740;6.784;2022-08-20T06:46:34;13.45;;;6.00;;
59300;SDS011;45073;52.740;6.784;2022-08-20T06:49:00;14.27;;;6.25;;
59300;SDS011;45073;52.740;6.784;2022-08-20T06:51:27;14.82;;;6.53;;
59300;SDS011;45073;52.740;6.784;2022-08-20T06:53:54;16.45;;;6.45;;
59300;SDS011;45073;52.740;6.784;2022-08-20T06:56:20;11.30;;;6.63;;
59300;SDS011;45073;52.740;6.784;2022-08-20T06:58:45;12.55;;;5.70;;
59300;SDS011;45073;52.740;6.784;2022-08-20T07:01:11;14.57;;;5.88;;
59300;SDS011;45073;52.740;6.784;2022-08-20T07:03:41;12.55;;;4.78;;
59300;SDS011;45073;52.740;6.784;2022-08-20T07:06:07;13.95;;;5.15;;
59300;SDS011;45073;52.740;6.784;2022-08-20T07:08:33;14.32;;;5.40;;
59300;SDS011;45073;52.740;6.784;2022-08-20T07:10:59;11.25;;;4.70;;
59300;SDS011;45073;52.740;6.784;2022-08-20T07:13:25;12.55;;;4.65;;
59300;SDS011;45073;52.740;6.784;2022-08-20T07:15:52;12.52;;;4.55;;
59300;SDS011;45073;52.740;6.784;2022-08-20T07:18:19;13.43;;;4.65;;
59300;SDS011;45073;52.740;6.784;2022-08-20T07:20:45;12.07;;;3.80;;
59300;SDS011;45073;52.740;6.784;2022-08-20T07:23:11;12.68;;;3.70;;
59300;SDS011;45073;52.740;6.784;2022-08-20T07:25:37;11.85;;;4.10;;
59300;SDS011;45073;52.740;6.784;2022-08-20T07:28:07;12.07;;;3.60;;
59300;SDS011;45073;52.740;6.784;2022-08-20T07:30:36;13.70;;;3.47;;
59300;SDS011;45073;52.740;6.784;2022-08-20T07:33:21;12.60;;;3.15;;
59300;SDS011;45073;52.740;6.784;2022-08-20T07:35:46;10.73;;;3.30;;
59300;SDS011;45073;52.740;6.784;2022-08-20T07:38:20;12.23;;;3.10;;
59300;SDS011;45073;52.740;6.784;2022-08-20T07:40:50;10.70;;;3.05;;
59300;SDS011;45073;52.740;6.784;2022-08-20T07:43:21;10.02;;;2.50;;
59300;SDS011;45073;52.740;6.784;2022-08-20T07:45:50;10.15;;;2.47;;
59300;SDS011;45073;52.740;6.784;2022-08-20T07:48:19;11.50;;;2.42;;
59300;SDS011;45073;52.740;6.784;2022-08-20T07:50:46;9.32;;;2.33;;
59300;SDS011;45073;52.740;6.784;2022-08-20T07:53:14;11.43;;;2.70;;
59300;SDS011;45073;52.740;6.784;2022-08-20T07:55:41;9.20;;;2.13;;
59300;SDS011;45073;52.740;6.784;2022-08-20T07:58:10;9.13;;;2.28;;
59300;SDS011;45073;52.740;6.784;2022-08-20T08:00:38;9.43;;;2.10;;
59300;SDS011;45073;52.740;6.784;2022-08-20T08:03:04;8.55;;;1.98;;
59300;SDS011;45073;52.740;6.784;2022-08-20T08:05:31;8.55;;;2.15;;
59300;SDS011;45073;52.740;6.784;2022-08-20T08:07:59;10.23;;;2.20;;
59300;SDS011;45073;52.740;6.784;2022-08-20T08:10:26;9.50;;;2.38;;
59300;SDS011;45073;52.740;6.784;2022-08-20T08:12:53;11.43;;;2.25;;
59300;SDS011;45073;52.740;6.784;2022-08-20T08:15:27;11.35;;;2.85;;
59300;SDS011;45073;52.740;6.784;2022-08-20T08:17:58;7.70;;;1.98;;
59300;SDS011;45073;52.740;6.784;2022-08-20T08:20:27;8.10;;;2.00;;
59300;SDS011;45073;52.740;6.784;2022-08-20T08:22:53;9.82;;;2.20;;
59300;SDS011;45073;52.740;6.784;2022-08-20T08:25:19;9.77;;;2.05;;
59300;SDS011;45073;52.740;6.784;2022-08-20T08:27:45;7.80;;;2.10;;
59300;SDS011;45073;52.740;6.784;2022-08-20T08:30:14;9.45;;;2.13;;
59300;SDS011;45073;52.740;6.784;2022-08-20T08:32:40;8.05;;;1.65;;
59300;SDS011;45073;52.740;6.784;2022-08-20T08:35:26;9.20;;;1.70;;
59300;SDS011;45073;52.740;6.784;2022-08-20T08:37:52;7.20;;;1.73;;
59300;SDS011;45073;52.740;6.784;2022-08-20T08:40:19;9.63;;;1.83;;
59300;SDS011;45073;52.740;6.784;2022-08-20T08:42:47;8.63;;;1.65;;
59300;SDS011;45073;52.740;6.784;2022-08-20T08:45:19;10.77;;;2.05;;
59300;SDS011;45073;52.740;6.784;2022-08-20T08:47:45;10.13;;;1.95;;
59300;SDS011;45073;52.740;6.784;2022-08-20T08:50:19;9.80;;;2.08;;
59300;SDS011;45073;52.740;6.784;2022-08-20T08:52:49;10.43;;;2.10;;
59300;SDS011;45073;52.740;6.784;2022-08-20T08:55:18;7.78;;;2.20;;
59300;SDS011;45073;52.740;6.784;2022-08-20T08:57:46;8.48;;;1.98;;
59300;SDS011;45073;52.740;6.784;2022-08-20T09:00:15;8.00;;;1.58;;
59300;SDS011;45073;52.740;6.784;2022-08-20T09:02:52;8.57;;;2.08;;
59300;SDS011;45073;52.740;6.784;2022-08-20T09:05:21;7.45;;;1.83;;
59300;SDS011;45073;52.740;6.784;2022-08-20T09:07:51;11.13;;;1.80;;
59300;SDS011;45073;52.740;6.784;2022-08-20T09:10:18;7.93;;;1.70;;
59300;SDS011;45073;52.740;6.784;2022-08-20T09:12:43;7.97;;;1.80;;
59300;SDS011;45073;52.740;6.784;2022-08-20T09:15:10;8.27;;;1.40;;
59300;SDS011;45073;52.740;6.784;2022-08-20T09:17:36;8.63;;;1.60;;
59300;SDS011;45073;52.740;6.784;2022-08-20T09:20:02;10.25;;;2.10;;
59300;SDS011;45073;52.740;6.784;2022-08-20T09:22:28;8.55;;;2.03;;
59300;SDS011;45073;52.740;6.784;2022-08-20T09:24:54;9.57;;;1.60;;
59300;SDS011;45073;52.740;6.784;2022-08-20T09:27:21;7.45;;;1.30;;
59300;SDS011;45073;52.740;6.784;2022-08-20T09:29:46;8.98;;;2.63;;
59300;SDS011;45073;52.740;6.784;2022-08-20T09:32:13;10.25;;;2.63;;
59300;SDS011;45073;52.740;6.784;2022-08-20T09:34:43;8.80;;;2.20;;
59300;SDS011;45073;52.740;6.784;2022-08-20T09:37:11;8.23;;;1.58;;
59300;SDS011;45073;52.740;6.784;2022-08-20T09:39:37;8.27;;;2.00;;
59300;SDS011;45073;52.740;6.784;2022-08-20T09:42:10;10.57;;;2.33;;
59300;SDS011;45073;52.740;6.784;2022-08-20T09:44:41;8.32;;;1.70;;
59300;SDS011;45073;52.740;6.784;2022-08-20T09:47:08;9.45;;;1.70;;
59300;SDS011;45073;52.740;6.784;2022-08-20T09:49:34;7.03;;;1.55;;
59300;SDS011;45073;52.740;6.784;2022-08-20T09:52:02;8.75;;;1.70;;
59300;SDS011;45073;52.740;6.784;2022-08-20T09:54:29;8.07;;;1.40;;
59300;SDS011;45073;52.740;6.784;2022-08-20T09:56:58;8.70;;;1.90;;
59300;SDS011;45073;52.740;6.784;2022-08-20T09:59:26;7.15;;;1.50;;
59300;SDS011;45073;52.740;6.784;2022-08-20T10:01:53;6.00;;;1.30;;
59300;SDS011;45073;52.740;6.784;2022-08-20T10:04:19;8.52;;;1.40;;
59300;SDS011;45073;52.740;6.784;2022-08-20T10:06:45;8.45;;;1.50;;
59300;SDS011;45073;52.740;6.784;2022-08-20T10:09:10;7.88;;;1.50;;
59300;SDS011;45073;52.740;6.784;2022-08-20T10:11:36;6.85;;;1.60;;
59300;SDS011;45073;52.740;6.784;2022-08-20T10:14:02;7.93;;;2.00;;
59300;SDS011;45073;52.740;6.784;2022-08-20T10:16:28;8.57;;;1.90;;
59300;SDS011;45073;52.740;6.784;2022-08-20T10:18:53;9.05;;;1.83;;
59300;SDS011;45073;52.740;6.784;2022-08-20T10:21:19;7.75;;;1.80;;
59300;SDS011;45073;52.740;6.784;2022-08-20T10:23:45;8.45;;;1.98;;
59300;SDS011;45073;52.740;6.784;2022-08-20T10:26:11;8.98;;;1.92;;
59300;SDS011;45073;52.740;6.784;2022-08-20T10:28:37;6.13;;;1.30;;
59300;SDS011;45073;52.740;6.784;2022-08-20T10:31:09;9.85;;;1.90;;
59300;SDS011;45073;52.740;6.784;2022-08-20T10:33:36;7.47;;;1.70;;
59300;SDS011;45073;52.740;6.784;2022-08-20T10:36:10;7.35;;;1.50;;
59300;SDS011;45073;52.740;6.784;2022-08-20T10:38:38;8.57;;;1.63;;
59300;SDS011;45073;52.740;6.784;2022-08-20T10:41:04;8.20;;;1.75;;
59300;SDS011;45073;52.740;6.784;2022-08-20T10:43:30;9.77;;;1.75;;
59300;SDS011;45073;52.740;6.784;2022-08-20T10:45:56;8.35;;;1.80;;
59300;SDS011;45073;52.740;6.784;2022-08-20T10:48:21;8.52;;;2.08;;
59300;SDS011;45073;52.740;6.784;2022-08-20T10:50:48;7.25;;;1.60;;
59300;SDS011;45073;52.740;6.784;2022-08-20T10:53:14;7.38;;;1.73;;
59300;SDS011;45073;52.740;6.784;2022-08-20T10:55:40;7.40;;;2.03;;
59300;SDS011;45073;52.740;6.784;2022-08-20T10:58:06;9.57;;;2.08;;
59300;SDS011;45073;52.740;6.784;2022-08-20T11:00:33;8.65;;;2.28;;
59300;SDS011;45073;52.740;6.784;2022-08-20T11:02:59;9.73;;;1.85;;
59300;SDS011;45073;52.740;6.784;2022-08-20T11:05:25;10.80;;;3.30;;
59300;SDS011;45073;52.740;6.784;2022-08-20T11:07:51;7.60;;;2.15;;
59300;SDS011;45073;52.740;6.784;2022-08-20T11:10:19;10.20;;;3.17;;
59300;SDS011;45073;52.740;6.784;2022-08-20T11:12:45;9.65;;;2.78;;
59300;SDS011;45073;52.740;6.784;2022-08-20T11:15:10;10.38;;;2.58;;
59300;SDS011;45073;52.740;6.784;2022-08-20T11:17:38;8.85;;;1.90;;
59300;SDS011;45073;52.740;6.784;2022-08-20T11:20:07;8.68;;;2.03;;
59300;SDS011;45073;52.740;6.784;2022-08-20T11:22:34;9.93;;;2.30;;
59300;SDS011;45073;52.740;6.784;2022-08-20T11:25:00;8.88;;;1.88;;
59300;SDS011;45073;52.740;6.784;2022-08-20T11:27:29;9.88;;;2.60;;
59300;SDS011;45073;52.740;6.784;2022-08-20T11:29:57;8.35;;;1.80;;
59300;SDS011;45073;52.740;6.784;2022-08-20T11:32:23;9.98;;;1.98;;
59300;SDS011;45073;52.740;6.784;2022-08-20T11:34:50;9.23;;;1.90;;
59300;SDS011;45073;52.740;6.784;2022-08-20T11:37:17;8.20;;;1.63;;
59300;SDS011;45073;52.740;6.784;2022-08-20T11:39:45;8.23;;;2.13;;
59300;SDS011;45073;52.740;6.784;2022-08-20T11:42:11;8.90;;;1.90;;
59300;SDS011;45073;52.740;6.784;2022-08-20T11:44:37;8.00;;;2.00;;
59300;SDS011;45073;52.740;6.784;2022-08-20T11:47:03;8.82;;;1.73;;
59300;SDS011;45073;52.740;6.784;2022-08-20T11:49:30;8.07;;;1.60;;
59300;SDS011;45073;52.740;6.784;2022-08-20T11:51:57;8.32;;;1.90;;
59300;SDS011;45073;52.740;6.784;2022-08-20T11:54:23;6.47;;;1.40;;
59300;SDS011;45073;52.740;6.784;2022-08-20T11:56:48;7.88;;;1.95;;
59300;SDS011;45073;52.740;6.784;2022-08-20T11:59:15;9.73;;;1.77;;
59300;SDS011;45073;52.740;6.784;2022-08-20T12:01:40;12.70;;;1.98;;
59300;SDS011;45073;52.740;6.784;2022-08-20T12:04:06;9.02;;;1.80;;
59300;SDS011;45073;52.740;6.784;2022-08-20T12:06:32;9.68;;;1.80;;
59300;SDS011;45073;52.740;6.784;2022-08-20T12:08:58;7.78;;;1.92;;
59300;SDS011;45073;52.740;6.784;2022-08-20T12:11:23;7.13;;;1.35;;
59300;SDS011;45073;52.740;6.784;2022-08-20T12:13:49;9.43;;;1.77;;
59300;SDS011;45073;52.740;6.784;2022-08-20T12:16:16;7.40;;;1.45;;
59300;SDS011;45073;52.740;6.784;2022-08-20T12:18:42;8.05;;;1.80;;
59300;SDS011;45073;52.740;6.784;2022-08-20T12:21:08;10.85;;;1.75;;
59300;SDS011;45073;52.740;6.784;2022-08-20T12:23:34;7.72;;;1.42;;
59300;SDS011;45073;52.740;6.784;2022-08-20T12:25:59;8.50;;;1.50;;
59300;SDS011;45073;52.740;6.784;2022-08-20T12:28:27;7.45;;;1.55;;
59300;SDS011;45073;52.740;6.784;2022-08-20T12:30:56;8.25;;;1.80;;
59300;SDS011;45073;52.740;6.784;2022-08-20T12:33:22;7.85;;;1.50;;
59300;SDS011;45073;52.740;6.784;2022-08-20T12:35:49;8.23;;;1.95;;
59300;SDS011;45073;52.740;6.784;2022-08-20T12:38:15;7.55;;;1.58;;
59300;SDS011;45073;52.740;6.784;2022-08-20T12:40:40;8.05;;;1.75;;
59300;SDS011;45073;52.740;6.784;2022-08-20T12:43:06;8.73;;;1.58;;
59300;SDS011;45073;52.740;6.784;2022-08-20T12:45:33;6.22;;;1.25;;
59300;SDS011;45073;52.740;6.784;2022-08-20T12:48:04;7.75;;;2.10;;
59300;SDS011;45073;52.740;6.784;2022-08-20T12:50:32;8.88;;;1.65;;
59300;SDS011;45073;52.740;6.784;2022-08-20T12:52:59;11.02;;;1.80;;
59300;SDS011;45073;52.740;6.784;2022-08-20T12:55:26;8.48;;;1.60;;
59300;SDS011;45073;52.740;6.784;2022-08-20T12:57:54;7.93;;;1.70;;
59300;SDS011;45073;52.740;6.784;2022-08-20T13:00:24;7.88;;;1.95;;
59300;SDS011;45073;52.740;6.784;2022-08-20T13:02:52;8.10;;;1.70;;
59300;SDS011;45073;52.740;6.784;2022-08-20T13:05:20;6.90;;;1.70;;
59300;SDS011;45073;52.740;6.784;2022-08-20T13:07:46;6.72;;;1.60;;
59300;SDS011;45073;52.740;6.784;2022-08-20T13:10:18;8.27;;;1.60;;
59300;SDS011;45073;52.740;6.784;2022-08-20T13:12:46;7.85;;;1.80;;
59300;SDS011;45073;52.740;6.784;2022-08-20T13:15:12;10.27;;;2.05;;
59300;SDS011;45073;52.740;6.784;2022-08-20T13:17:37;8.52;;;1.90;;
59300;SDS011;45073;52.740;6.784;2022-08-20T13:20:05;8.10;;;1.90;;
59300;SDS011;45073;52.740;6.784;2022-08-20T13:22:33;9.50;;;1.95;;
59300;SDS011;45073;52.740;6.784;2022-08-20T13:24:59;9.25;;;2.10;;
59300;SDS011;45073;52.740;6.784;2022-08-20T13:27:24;8.07;;;1.75;;
59300;SDS011;45073;52.740;6.784;2022-08-20T13:29:51;9.35;;;2.28;;
59300;SDS011;45073;52.740;6.784;2022-08-20T13:32:18;8.43;;;1.77;;
59300;SDS011;45073;52.740;6.784;2022-08-20T13:34:45;9.05;;;1.77;;
59300;SDS011;45073;52.740;6.784;2022-08-20T13:37:11;6.97;;;1.80;;
59300;SDS011;45073;52.740;6.784;2022-08-20T13:39:39;9.13;;;1.90;;
59300;SDS011;45073;52.740;6.784;2022-08-20T13:42:06;10.40;;;1.90;;
59300;SDS011;45073;52.740;6.784;2022-08-20T13:44:32;10.65;;;1.92;;
59300;SDS011;45073;52.740;6.784;2022-08-20T13:46:58;6.43;;;1.60;;
59300;SDS011;45073;52.740;6.784;2022-08-20T13:49:24;9.18;;;2.30;;
59300;SDS011;45073;52.740;6.784;2022-08-20T13:51:49;8.32;;;1.80;;
59300;SDS011;45073;52.740;6.784;2022-08-20T13:54:15;8.70;;;1.83;;
59300;SDS011;45073;52.740;6.784;2022-08-20T13:56:40;7.80;;;1.90;;
59300;SDS011;45073;52.740;6.784;2022-08-20T13:59:06;7.63;;;1.67;;
59300;SDS011;45073;52.740;6.784;2022-08-20T14:01:31;7.35;;;1.63;;
59300;SDS011;45073;52.740;6.784;2022-08-20T14:03:57;10.20;;;1.88;;
59300;SDS011;45073;52.740;6.784;2022-08-20T14:06:23;8.98;;;2.00;;
59300;SDS011;45073;52.740;6.784;2022-08-20T14:08:49;8.57;;;2.08;;
59300;SDS011;45073;52.740;6.784;2022-08-20T14:11:14;9.65;;;2.20;;
59300;SDS011;45073;52.740;6.784;2022-08-20T14:13:40;9.70;;;1.80;;
59300;SDS011;45073;52.740;6.784;2022-08-20T14:16:06;10.68;;;2.58;;
59300;SDS011;45073;52.740;6.784;2022-08-20T14:18:32;8.35;;;2.00;;
59300;SDS011;45073;52.740;6.784;2022-08-20T14:20:57;7.93;;;1.80;;
59300;SDS011;45073;52.740;6.784;2022-08-20T14:23:23;7.40;;;2.10;;
59300;SDS011;45073;52.740;6.784;2022-08-20T14:25:48;8.52;;;2.10;;
59300;SDS011;45073;52.740;6.784;2022-08-20T14:28:15;7.15;;;1.75;;
59300;SDS011;45073;52.740;6.784;2022-08-20T14:30:44;9.07;;;2.20;;
59300;SDS011;45073;52.740;6.784;2022-08-20T14:33:10;7.30;;;1.65;;
59300;SDS011;45073;52.740;6.784;2022-08-20T14:35:36;8.10;;;1.90;;
59300;SDS011;45073;52.740;6.784;2022-08-20T14:38:02;8.20;;;1.80;;
59300;SDS011;45073;52.740;6.784;2022-08-20T14:40:27;21.83;;;2.83;;
59300;SDS011;45073;52.740;6.784;2022-08-20T14:42:53;9.10;;;2.22;;
59300;SDS011;45073;52.740;6.784;2022-08-20T14:45:20;8.40;;;1.98;;
59300;SDS011;45073;52.740;6.784;2022-08-20T14:47:50;8.60;;;1.90;;
59300;SDS011;45073;52.740;6.784;2022-08-20T14:50:19;13.88;;;2.40;;
59300;SDS011;45073;52.740;6.784;2022-08-20T14:52:47;9.10;;;1.70;;
59300;SDS011;45073;52.740;6.784;2022-08-20T14:55:14;7.15;;;1.67;;
59300;SDS011;45073;52.740;6.784;2022-08-20T14:57:42;10.20;;;2.03;;